Louisville Standiford Field, Kentucky
Current Conditions -  °F | °C
As of 5:56 AM on Sunday 23 Nov 2014 (Local Time) from KSDF Reporting Station
Overcast Overcast  
Wind Chill: 54°   Ceiling: 6000
Heat Index: 54°   Visibility: 10mi
Dew Point: 38°   Wind: 7mph
Humidity: 55%   Direction: 140°SE
Pressure: 29.96"   Gusts: NA
Location:  38.18°N, 85.73°W
Report Text: KSDF 231056Z 14006KT 10SM FEW033 SCT039 OVC060 12/03 A2996 RMK AO2 SLP145 T01220033
Loading
Personal Weather Stations






























Interactive Weather Map New forecast layout! Learn more

10-Day Weather Forecast

Advertisements
Track Severe Weather on mobile